Time;durP1;ratioP1;P1;durP2;ratioP2;P2;SDS_P1;SDS_P2;PMS_P1;PMS_P2;Temp;Humidity;BMP_temperature;BMP_pressure;BME280_temperature;BME280_humidity;BME280_pressure;Samples;Min_cycle;Max_cycle;Signal;HPM_P1;HPM_P2
2021/03/15 00:00:45;;;;;;;10.82;1.50;;;7.00;99.90;;;;;;5071054;28;20035;-75
2021/03/15 00:03:11;;;;;;;10.50;2.47;;;6.90;99.90;;;;;;5075018;28;20059;-75
2021/03/15 00:05:37;;;;;;;6.93;1.20;;;6.90;99.90;;;;;;5079202;28;20029;-75
2021/03/15 00:08:03;;;;;;;5.07;1.70;;;6.90;99.90;;;;;;5074811;28;20032;-75
2021/03/15 00:10:29;;;;;;;9.88;1.33;;;6.90;99.90;;;;;;5073387;28;20040;-74
2021/03/15 00:12:55;;;;;;;6.63;1.52;;;6.90;99.90;;;;;;5072593;28;20101;-74
2021/03/15 00:15:23;;;;;;;9.50;1.17;;;6.90;99.90;;;;;;5072176;28;20048;-74
2021/03/15 00:17:49;;;;;;;0.73;0.65;;;6.90;99.90;;;;;;5072397;28;20066;-74
2021/03/15 00:20:16;;;;;;;10.02;1.50;;;6.90;99.90;;;;;;5071587;28;20029;-73
2021/03/15 00:22:44;;;;;;;3.70;1.58;;;6.90;99.90;;;;;;5071745;28;20125;-74
2021/03/15 00:25:11;;;;;;;6.30;1.90;;;6.90;99.90;;;;;;5073359;28;20074;-74
2021/03/15 00:27:38;;;;;;;5.93;0.98;;;6.80;99.90;;;;;;5064332;28;20439;-74
2021/03/15 00:30:07;;;;;;;7.45;1.15;;;6.80;99.90;;;;;;5072277;28;20378;-74
2021/03/15 00:32:33;;;;;;;11.95;1.13;;;6.80;99.90;;;;;;5069070;28;20032;-73
2021/03/15 00:34:58;;;;;;;4.38;1.10;;;6.80;99.90;;;;;;5073631;28;20469;-73
2021/03/15 00:37:24;;;;;;;5.13;0.90;;;6.80;99.90;;;;;;5072569;28;20476;-72
2021/03/15 00:39:49;;;;;;;3.65;1.00;;;6.70;99.90;;;;;;5072193;28;20032;-73
2021/03/15 00:42:15;;;;;;;6.25;1.63;;;6.80;99.90;;;;;;5072077;28;20028;-74
2021/03/15 00:44:41;;;;;;;6.13;1.65;;;6.80;99.90;;;;;;5073760;28;20060;-73
2021/03/15 00:47:06;;;;;;;3.40;1.08;;;6.80;99.90;;;;;;5073466;28;20025;-73
2021/03/15 00:49:32;;;;;;;6.43;0.95;;;6.80;99.90;;;;;;5073280;28;20107;-73
2021/03/15 00:51:58;;;;;;;5.05;1.02;;;6.80;99.90;;;;;;5071974;28;20044;-73
2021/03/15 00:54:24;;;;;;;11.00;1.35;;;6.70;99.90;;;;;;5072274;28;20016;-73
2021/03/15 00:56:49;;;;;;;5.88;0.70;;;6.60;99.90;;;;;;5071658;28;20020;-73
2021/03/15 00:59:15;;;;;;;4.75;1.10;;;6.60;99.90;;;;;;5072687;28;20112;-73
2021/03/15 01:01:41;;;;;;;8.25;1.00;;;6.60;99.90;;;;;;5071921;28;20459;-73
2021/03/15 01:04:09;;;;;;;8.38;1.48;;;6.50;99.90;;;;;;5072715;28;20032;-72
2021/03/15 01:06:34;;;;;;;3.97;1.20;;;6.60;99.90;;;;;;5071343;28;20017;-73
2021/03/15 01:09:00;;;;;;;13.85;1.30;;;6.60;99.90;;;;;;5071132;28;20324;-74
2021/03/15 01:11:26;;;;;;;7.53;1.20;;;6.70;99.90;;;;;;5070679;28;20021;-73
2021/03/15 01:13:52;;;;;;;2.92;0.52;;;6.60;99.90;;;;;;5071575;28;20028;-72
2021/03/15 01:16:18;;;;;;;7.55;0.95;;;6.60;99.90;;;;;;5072053;28;20020;-73
2021/03/15 01:18:44;;;;;;;12.88;1.85;;;6.60;99.90;;;;;;5070662;28;20028;-73
2021/03/15 01:21:12;;;;;;;5.90;2.00;;;6.70;99.90;;;;;;5071765;28;20049;-73
2021/03/15 01:23:38;;;;;;;11.20;1.85;;;6.70;99.90;;;;;;5071283;28;20032;-72
2021/03/15 01:26:04;;;;;;;10.82;1.42;;;6.60;99.90;;;;;;5073180;28;20435;-72
2021/03/15 01:28:30;;;;;;;12.30;1.63;;;6.60;99.90;;;;;;5072122;28;20029;-73
2021/03/15 01:30:55;;;;;;;8.10;1.88;;;6.60;99.90;;;;;;5072652;28;20036;-74
2021/03/15 01:33:21;;;;;;;7.03;2.47;;;6.60;99.90;;;;;;5072368;28;20029;-73
2021/03/15 01:35:46;;;;;;;9.80;1.75;;;6.50;99.90;;;;;;5071749;28;20512;-74
2021/03/15 01:38:12;;;;;;;6.07;1.88;;;6.50;99.90;;;;;;5071418;28;20369;-74
2021/03/15 01:40:39;;;;;;;7.68;2.10;;;6.50;99.90;;;;;;5067984;28;20059;-74
2021/03/15 01:43:05;;;;;;;9.68;2.25;;;6.50;99.90;;;;;;5073046;28;20635;-74
2021/03/15 01:45:32;;;;;;;6.40;1.75;;;6.60;99.90;;;;;;5072909;28;20112;-73
2021/03/15 01:47:57;;;;;;;8.52;1.85;;;6.40;99.90;;;;;;5072979;28;20029;-74
2021/03/15 01:50:24;;;;;;;15.00;2.13;;;6.40;99.90;;;;;;5070988;28;20408;-74
2021/03/15 01:52:52;;;;;;;12.50;3.28;;;6.40;99.90;;;;;;5072337;28;20151;-73
2021/03/15 01:55:19;;;;;;;9.82;2.65;;;6.40;99.90;;;;;;5072673;28;20052;-73
2021/03/15 01:57:46;;;;;;;11.07;2.53;;;6.40;99.90;;;;;;5070732;28;20025;-73
2021/03/15 02:00:14;;;;;;;7.25;1.92;;;6.40;99.90;;;;;;5070999;28;20036;-73
2021/03/15 02:02:44;;;;;;;7.53;2.35;;;6.30;99.90;;;;;;5061466;28;20052;-72
2021/03/15 02:05:11;;;;;;;9.40;1.85;;;6.30;99.90;;;;;;5071849;28;20131;-73
2021/03/15 02:07:36;;;;;;;15.18;2.28;;;6.30;99.90;;;;;;5071813;28;20032;-73
2021/03/15 02:10:03;;;;;;;9.13;2.70;;;6.30;99.90;;;;;;5072256;28;20040;-73
2021/03/15 02:12:37;;;;;;;3.83;2.83;;;6.40;99.90;;;;;;5072711;28;20040;-73
2021/03/15 02:15:21;;;;;;;5.15;2.53;;;6.40;99.90;;;;;;5071905;28;20040;-73
2021/03/15 02:18:13;;;;;;;8.38;2.25;;;6.40;99.90;;;;;;5070298;28;20052;-73
2021/03/15 02:21:02;;;;;;;8.80;3.40;;;6.40;99.90;;;;;;5069222;28;20032;-72
2021/03/15 02:23:43;;;;;;;5.90;2.85;;;6.40;99.90;;;;;;5070577;28;20169;-73
2021/03/15 02:26:34;;;;;;;3.40;2.92;;;6.30;99.90;;;;;;5071517;28;20510;-72
2021/03/15 02:29:44;;;;;;;7.45;2.90;;;6.30;99.90;;;;;;5050694;28;20434;-72
2021/03/15 02:32:37;;;;;;;9.25;3.22;;;6.30;99.90;;;;;;5064087;28;20094;-72
2021/03/15 02:35:03;;;;;;;6.93;3.28;;;6.30;99.90;;;;;;5073927;28;20071;-73
2021/03/15 02:37:39;;;;;;;3.88;2.78;;;6.30;99.90;;;;;;5076276;28;20052;-72
2021/03/15 02:40:12;;;;;;;9.65;3.60;;;6.20;99.90;;;;;;5075990;28;20047;-72
2021/03/15 02:42:45;;;;;;;9.63;3.30;;;6.20;99.90;;;;;;5075619;28;20037;-72
2021/03/15 02:45:13;;;;;;;9.23;3.40;;;6.30;99.90;;;;;;5074397;28;20029;-72
2021/03/15 02:47:41;;;;;;;5.53;2.63;;;6.30;99.90;;;;;;5077948;28;20082;-72
2021/03/15 02:50:10;;;;;;;8.50;4.20;;;6.40;99.90;;;;;;5077369;28;20063;-73
2021/03/15 02:52:43;;;;;;;10.20;3.75;;;6.40;99.90;;;;;;5075183;28;20035;-73
2021/03/15 02:55:10;;;;;;;12.07;3.40;;;6.40;99.90;;;;;;5075111;28;20017;-72
2021/03/15 02:57:37;;;;;;;14.55;3.55;;;6.40;99.90;;;;;;5074165;28;20090;-72
2021/03/15 03:00:06;;;;;;;16.48;3.63;;;6.50;99.90;;;;;;5075443;28;20048;-72
2021/03/15 03:02:36;;;;;;;19.25;4.60;;;6.50;99.90;;;;;;5075950;28;20102;-73
2021/03/15 03:05:06;;;;;;;13.07;3.97;;;6.40;99.90;;;;;;5074126;28;20017;-73
2021/03/15 03:07:32;;;;;;;11.20;3.60;;;6.40;99.90;;;;;;5074311;28;20438;-72
2021/03/15 03:10:17;;;;;;;8.55;4.07;;;6.40;99.90;;;;;;5075220;28;20024;-72
2021/03/15 03:12:45;;;;;;;11.50;4.45;;;6.40;99.90;;;;;;5073598;28;20498;-73
2021/03/15 03:15:13;;;;;;;16.67;5.15;;;6.40;99.90;;;;;;5075458;28;20017;-73
2021/03/15 03:17:40;;;;;;;11.88;4.65;;;6.40;99.90;;;;;;5074094;28;20388;-72
2021/03/15 03:20:13;;;;;;;12.40;5.05;;;6.40;99.90;;;;;;5070393;28;20154;-73
2021/03/15 03:22:42;;;;;;;14.30;4.88;;;6.30;99.90;;;;;;5073210;28;20032;-72
2021/03/15 03:25:15;;;;;;;16.45;4.53;;;6.40;99.90;;;;;;5073555;28;20045;-72
2021/03/15 03:27:43;;;;;;;16.17;4.40;;;6.40;99.90;;;;;;5072742;28;20092;-72
2021/03/15 03:30:12;;;;;;;;;;;6.40;99.90;;;;;;5072448;28;20048;-73
2021/03/15 03:32:41;;;;;;;18.70;4.97;;;6.40;99.90;;;;;;5072153;28;19915;-72
2021/03/15 03:35:07;;;;;;;10.35;5.25;;;6.40;99.90;;;;;;5075120;28;20021;-73
2021/03/15 03:37:34;;;;;;;16.75;5.10;;;6.50;99.90;;;;;;5073860;28;20380;-73
2021/03/15 03:39:59;;;;;;;10.45;3.92;;;6.40;99.90;;;;;;5074860;28;20044;-73
2021/03/15 03:42:25;;;;;;;12.65;4.18;;;6.50;99.90;;;;;;5068996;28;20485;-72
2021/03/15 03:44:54;;;;;;;14.40;4.50;;;6.50;99.90;;;;;;5069879;28;20032;-72
2021/03/15 03:47:21;;;;;;;13.18;4.00;;;6.50;99.90;;;;;;5084199;28;20491;-73
2021/03/15 03:49:47;;;;;;;15.00;3.85;;;6.50;99.90;;;;;;5088259;28;20045;-72
2021/03/15 03:52:14;;;;;;;27.13;5.07;;;6.50;99.90;;;;;;5071454;28;20032;-72
2021/03/15 03:54:45;;;;;;;8.32;4.20;;;6.60;99.90;;;;;;5081395;28;20017;-73
2021/03/15 03:57:13;;;;;;;17.98;3.90;;;6.70;99.90;;;;;;5079618;28;20089;-72
2021/03/15 03:59:48;;;;;;;;;;;6.60;99.90;;;;;;5073176;28;20027;-72
2021/03/15 04:02:16;;;;;;;10.27;4.03;;;6.50;99.90;;;;;;5071837;28;19915;-72
2021/03/15 04:04:45;;;;;;;9.75;3.75;;;6.50;99.90;;;;;;5074398;28;20528;-72
2021/03/15 04:07:12;;;;;;;12.85;4.30;;;6.50;99.90;;;;;;5073673;28;20097;-73
2021/03/15 04:09:40;;;;;;;7.60;3.70;;;6.50;99.90;;;;;;5070498;28;20028;-71
2021/03/15 04:12:10;;;;;;;;;;;6.50;99.90;;;;;;5084208;28;20055;-72
2021/03/15 04:14:42;;;;;;;7.65;3.50;;;6.60;99.90;;;;;;5070089;28;19931;-73
2021/03/15 04:17:17;;;;;;;7.88;3.20;;;6.50;99.90;;;;;;5072603;28;20032;-71
2021/03/15 04:19:56;;;;;;;15.10;4.63;;;6.50;99.90;;;;;;5070387;28;20043;-71
2021/03/15 04:22:26;;;;;;;5.55;3.25;;;6.50;99.90;;;;;;5064286;28;20177;-72
2021/03/15 04:24:53;;;;;;;7.22;3.78;;;6.50;99.90;;;;;;5067409;28;20031;-72
2021/03/15 04:27:20;;;;;;;10.18;5.25;;;6.50;99.90;;;;;;5085845;28;20032;-72
2021/03/15 04:29:47;;;;;;;10.73;4.43;;;6.50;99.90;;;;;;5069853;28;20040;-71
2021/03/15 04:32:13;;;;;;;16.70;4.15;;;6.50;99.90;;;;;;5072959;28;20365;-71
2021/03/15 04:34:40;;;;;;;11.35;3.80;;;6.50;99.90;;;;;;5072006;28;20077;-72
2021/03/15 04:37:07;;;;;;;15.80;5.13;;;6.60;99.90;;;;;;5068308;28;20112;-72
2021/03/15 04:39:36;;;;;;;13.52;5.20;;;6.60;99.90;;;;;;5066798;28;20024;-72
2021/03/15 04:42:03;;;;;;;13.02;5.25;;;6.60;99.90;;;;;;5069988;28;20020;-73
2021/03/15 04:44:30;;;;;;;8.77;4.55;;;6.60;99.90;;;;;;5074004;28;20031;-72
2021/03/15 04:46:56;;;;;;;14.43;6.45;;;6.50;99.90;;;;;;5071832;28;20223;-71
2021/03/15 04:49:22;;;;;;;13.48;4.70;;;6.60;99.90;;;;;;5072290;28;20107;-71
2021/03/15 04:51:49;;;;;;;17.63;4.78;;;6.70;99.90;;;;;;5071891;28;20032;-71
2021/03/15 04:54:14;;;;;;;14.75;4.32;;;6.70;99.90;;;;;;5071203;28;20107;-71
2021/03/15 04:56:41;;;;;;;15.15;5.47;;;6.70;99.90;;;;;;5070565;28;20554;-72
2021/03/15 04:59:10;;;;;;;17.23;5.03;;;6.70;99.90;;;;;;5068679;28;20037;-72
2021/03/15 05:01:39;;;;;;;14.27;4.72;;;6.70;99.90;;;;;;5072419;28;20048;-71
2021/03/15 05:04:08;;;;;;;13.05;4.40;;;6.70;99.90;;;;;;5071919;28;20123;-72
2021/03/15 05:06:35;;;;;;;12.32;4.55;;;6.70;99.90;;;;;;5071889;28;20052;-72
2021/03/15 05:09:02;;;;;;;13.43;5.07;;;6.60;99.90;;;;;;5073303;28;20028;-72
2021/03/15 05:11:31;;;;;;;8.35;4.32;;;6.60;99.90;;;;;;5070625;28;20048;-72
2021/03/15 05:14:00;;;;;;;14.10;5.07;;;6.60;99.90;;;;;;5072921;28;20052;-71
2021/03/15 05:16:30;;;;;;;12.43;4.88;;;6.60;99.90;;;;;;5071165;28;20048;-72
2021/03/15 05:18:57;;;;;;;14.02;5.05;;;6.60;99.90;;;;;;5071759;28;20465;-72
2021/03/15 05:21:23;;;;;;;22.42;5.63;;;6.60;99.90;;;;;;5072968;28;20396;-72
2021/03/15 05:23:51;;;;;;;14.50;5.63;;;6.50;99.90;;;;;;5071975;28;20029;-72
2021/03/15 05:26:19;;;;;;;19.65;4.75;;;6.50;99.90;;;;;;5071051;28;20113;-72
2021/03/15 05:28:47;;;;;;;22.13;5.22;;;6.50;99.90;;;;;;5071674;28;20090;-72
2021/03/15 05:31:15;;;;;;;17.88;5.32;;;6.40;99.90;;;;;;5071453;28;20143;-72
2021/03/15 05:33:43;;;;;;;19.52;5.68;;;6.40;99.90;;;;;;5073075;28;20343;-72
2021/03/15 05:36:10;;;;;;;22.20;5.90;;;6.40;99.90;;;;;;5071657;28;20056;-72
2021/03/15 05:38:37;;;;;;;11.30;4.97;;;6.40;99.90;;;;;;5068553;28;20040;-72
2021/03/15 05:41:04;;;;;;;16.58;5.22;;;6.40;99.90;;;;;;5066283;28;20023;-73
2021/03/15 05:43:49;;;;;;;15.43;5.43;;;6.40;99.90;;;;;;5069804;28;20040;-72
2021/03/15 05:46:14;;;;;;;24.40;4.88;;;6.30;99.90;;;;;;5073796;28;20511;-73
2021/03/15 05:49:25;;;;;;;12.98;4.70;;;6.40;99.90;;;;;;5071036;28;20119;-72
2021/03/15 05:52:17;;;;;;;24.73;5.38;;;6.40;99.90;;;;;;5068773;28;20036;-72
2021/03/15 05:55:07;;;;;;;21.48;5.43;;;6.30;99.90;;;;;;5071140;28;20071;-72
2021/03/15 05:57:58;;;;;;;20.42;5.63;;;6.40;99.90;;;;;;5072357;28;20032;-72
2021/03/15 06:01:16;;;;;;;11.60;5.65;;;6.40;99.90;;;;;;5066755;28;20211;-72
2021/03/15 06:03:56;;;;;;;10.65;4.20;;;6.30;99.90;;;;;;4967988;28;20133;-73
2021/03/15 06:06:23;;;;;;;15.13;4.30;;;6.30;99.90;;;;;;5069489;28;20071;-73
2021/03/15 06:08:55;;;;;;;13.83;4.43;;;6.30;99.90;;;;;;5074421;28;20028;-72
2021/03/15 06:11:26;;;;;;;14.98;4.45;;;6.30;99.90;;;;;;5064163;28;20037;-72
2021/03/15 06:13:52;;;;;;;9.88;3.00;;;6.30;99.90;;;;;;5065838;28;20017;-72
2021/03/15 06:16:18;;;;;;;14.63;3.42;;;6.30;99.90;;;;;;5070994;28;20016;-73
2021/03/15 06:18:44;;;;;;;17.90;3.25;;;6.20;99.90;;;;;;5075700;28;20094;-74
2021/03/15 06:21:11;;;;;;;19.08;3.20;;;6.20;99.90;;;;;;5073547;28;20028;-73
2021/03/15 06:23:37;;;;;;;15.23;4.50;;;6.10;99.90;;;;;;5070543;28;20025;-72
2021/03/15 06:26:03;;;;;;;20.45;2.83;;;6.10;99.90;;;;;;5075336;28;20016;-72
2021/03/15 06:28:29;;;;;;;13.10;3.13;;;6.10;99.90;;;;;;5074126;28;20401;-72
2021/03/15 06:30:55;;;;;;;24.63;3.55;;;6.10;99.90;;;;;;5075342;28;20031;-70
2021/03/15 06:33:21;;;;;;;13.05;2.90;;;6.10;99.90;;;;;;5074488;28;20021;-72
2021/03/15 06:36:00;;;;;;;17.30;3.25;;;6.10;99.90;;;;;;5072627;28;20021;-72
2021/03/15 06:38:28;;;;;;;14.75;2.92;;;6.20;99.90;;;;;;5074543;28;20024;-72
2021/03/15 06:40:55;;;;;;;17.95;2.40;;;6.30;99.90;;;;;;5073644;28;20421;-72
2021/03/15 06:43:21;;;;;;;19.55;3.58;;;6.30;99.90;;;;;;5074300;28;20039;-71
2021/03/15 06:45:51;;;;;;;10.80;2.53;;;6.40;99.90;;;;;;5075883;28;20024;-72
2021/03/15 06:48:18;;;;;;;13.95;2.67;;;6.40;99.90;;;;;;5075347;28;20492;-73
2021/03/15 06:50:44;;;;;;;22.98;2.35;;;6.40;99.90;;;;;;5074496;28;20021;-73
2021/03/15 06:53:10;;;;;;;9.45;3.08;;;6.40;99.90;;;;;;5075392;28;20024;-73
2021/03/15 06:55:35;;;;;;;19.35;3.13;;;6.40;99.90;;;;;;5074606;28;20469;-73
2021/03/15 06:58:20;;;;;;;9.70;1.95;;;6.40;99.90;;;;;;5074991;28;20036;-73
2021/03/15 07:00:46;;;;;;;23.75;3.47;;;6.40;99.90;;;;;;5074379;28;20504;-73
2021/03/15 07:03:22;;;;;;;21.23;3.92;;;6.50;99.90;;;;;;5075223;28;20111;-73
2021/03/15 07:05:58;;;;;;;19.42;2.67;;;6.60;99.90;;;;;;5073732;28;20040;-73
2021/03/15 07:08:24;;;;;;;20.42;4.28;;;6.60;99.90;;;;;;5071308;28;20123;-73
2021/03/15 07:10:57;;;;;;;12.02;3.67;;;6.60;99.90;;;;;;5072891;28;20107;-73
2021/03/15 07:13:25;;;;;;;19.35;3.60;;;6.80;99.90;;;;;;5072565;28;20413;-74
2021/03/15 07:15:53;;;;;;;19.98;2.60;;;6.70;99.90;;;;;;5071928;28;20017;-72
2021/03/15 07:18:31;;;;;;;19.83;3.00;;;6.70;99.90;;;;;;5073689;28;20025;-72
2021/03/15 07:21:00;;;;;;;18.60;2.22;;;6.70;99.90;;;;;;5073929;28;20040;-74
2021/03/15 07:23:42;;;;;;;18.58;3.88;;;6.70;99.90;;;;;;5075475;28;20036;-73
2021/03/15 07:26:13;;;;;;;29.88;2.70;;;6.80;99.90;;;;;;5073038;28;20540;-73
2021/03/15 07:28:40;;;;;;;23.55;3.03;;;6.80;99.90;;;;;;5070951;28;20028;-72
2021/03/15 07:31:32;;;;;;;22.33;2.40;;;6.80;99.90;;;;;;5075503;28;20587;-73
2021/03/15 07:33:58;;;;;;;16.65;2.45;;;6.80;99.90;;;;;;5070610;28;20101;-73
2021/03/15 07:36:43;;;;;;;14.20;2.88;;;6.90;99.90;;;;;;5073741;28;20025;-73
2021/03/15 07:39:09;;;;;;;16.67;2.22;;;7.00;99.90;;;;;;5072017;28;20051;-74
2021/03/15 07:41:39;;;;;;;11.50;2.05;;;7.20;99.90;;;;;;5073494;28;20051;-74
2021/03/15 07:44:29;;;;;;;29.20;3.80;;;7.40;99.90;;;;;;5072765;28;20469;-74
2021/03/15 07:47:00;;;;;;;11.15;1.90;;;7.60;99.90;;;;;;5073689;28;20060;-73
2021/03/15 07:49:39;;;;;;;16.20;2.22;;;7.40;99.90;;;;;;5073722;28;20094;-75
2021/03/15 07:52:10;;;;;;;13.73;1.80;;;7.20;99.90;;;;;;5073475;28;20073;-73
2021/03/15 07:54:41;;;;;;;24.98;3.95;;;7.10;99.90;;;;;;5071903;28;20473;-73
2021/03/15 07:57:11;;;;;;;20.92;3.40;;;7.20;99.90;;;;;;5071738;28;20492;-73
2021/03/15 07:59:38;;;;;;;17.65;2.67;;;7.50;99.90;;;;;;5071100;28;20359;-73
2021/03/15 08:02:04;;;;;;;14.75;1.50;;;7.50;99.90;;;;;;5071611;28;20091;-74
2021/03/15 08:04:30;;;;;;;13.32;2.45;;;7.40;99.90;;;;;;5072565;28;20031;-74
2021/03/15 08:06:56;;;;;;;27.52;2.80;;;7.30;99.90;;;;;;5071828;28;20043;-74
2021/03/15 08:09:22;;;;;;;5.82;1.13;;;7.20;99.90;;;;;;5073070;28;20116;-76
2021/03/15 08:11:49;;;;;;;5.60;1.85;;;7.00;99.90;;;;;;5072283;28;20098;-73
2021/03/15 08:14:18;;;;;;;10.38;1.73;;;6.80;99.90;;;;;;5072166;28;20056;-73
2021/03/15 08:16:46;;;;;;;12.95;1.10;;;6.70;99.90;;;;;;5070741;28;20353;-72
2021/03/15 08:19:13;;;;;;;14.57;1.95;;;6.60;99.90;;;;;;5072039;28;20047;-72
2021/03/15 08:21:40;;;;;;;13.95;1.17;;;6.80;99.90;;;;;;5072238;28;20032;-72
2021/03/15 08:24:11;;;;;;;16.65;1.45;;;7.00;99.90;;;;;;5071735;28;20028;-72
2021/03/15 08:26:38;;;;;;;8.68;2.15;;;7.10;99.90;;;;;;5069893;28;20017;-74
2021/03/15 08:29:04;;;;;;;13.47;2.40;;;7.20;99.90;;;;;;5056851;28;20379;-74
2021/03/15 08:31:34;;;;;;;14.02;2.47;;;7.30;99.90;;;;;;5064523;28;20043;-74
2021/03/15 08:34:01;;;;;;;9.32;2.63;;;7.40;99.90;;;;;;5075953;28;20040;-74
2021/03/15 08:36:44;;;;;;;19.17;2.15;;;7.40;99.90;;;;;;5076980;28;20107;-74
2021/03/15 08:39:27;;;;;;;12.73;1.80;;;7.70;99.90;;;;;;5078033;28;20012;-74
2021/03/15 08:42:08;;;;;;;10.70;1.52;;;8.00;99.90;;;;;;5064638;28;20025;-74
2021/03/15 08:44:42;;;;;;;14.85;1.90;;;8.20;99.90;;;;;;5067923;28;20557;-75
2021/03/15 08:47:08;;;;;;;11.73;1.80;;;7.80;99.90;;;;;;5064851;28;20035;-74
2021/03/15 08:49:37;;;;;;;9.52;1.70;;;7.60;99.90;;;;;;5071951;28;20020;-73
2021/03/15 08:52:03;;;;;;;18.05;2.40;;;7.50;99.90;;;;;;5063389;28;20066;-73
2021/03/15 08:54:38;;;;;;;7.95;2.10;;;7.60;99.90;;;;;;5065799;28;20028;-74
2021/03/15 08:57:05;;;;;;;15.07;2.10;;;7.60;99.90;;;;;;5060807;28;20024;-73
2021/03/15 08:59:33;;;;;;;11.55;1.40;;;7.50;99.90;;;;;;5067235;28;20433;-74
2021/03/15 09:02:03;;;;;;;10.93;1.42;;;7.60;99.90;;;;;;5069155;28;20086;-75
2021/03/15 09:04:39;;;;;;;18.50;3.13;;;7.60;99.90;;;;;;5061440;28;20028;-74
2021/03/15 09:07:43;;;;;;;13.65;2.40;;;7.80;99.90;;;;;;5064302;28;20028;-77
2021/03/15 09:10:24;;;;;;;13.55;2.08;;;8.00;99.90;;;;;;5066567;28;20111;-74
2021/03/15 09:13:11;;;;;;;12.68;2.63;;;8.10;99.90;;;;;;5068773;28;20040;-74
2021/03/15 09:15:39;;;;;;;13.77;1.52;;;8.20;99.90;;;;;;5066603;28;20370;-74
2021/03/15 09:18:48;;;;;;;11.90;1.65;;;8.40;99.90;;;;;;5065632;28;20031;-74
2021/03/15 09:21:23;;;;;;;25.92;4.15;;;8.60;99.90;;;;;;5006148;28;20046;-75
2021/03/15 09:23:49;;;;;;;15.52;2.78;;;8.50;99.90;;;;;;5063893;28;20037;-74
2021/03/15 09:26:30;;;;;;;12.88;2.15;;;8.50;99.90;;;;;;5069139;28;20469;-76
2021/03/15 09:28:57;;;;;;;15.82;3.25;;;8.30;99.90;;;;;;5070316;28;20401;-74
2021/03/15 09:31:23;;;;;;;10.25;2.17;;;8.10;99.90;;;;;;5065358;28;20037;-74
2021/03/15 09:33:49;;;;;;;14.82;2.55;;;8.00;99.90;;;;;;5065109;28;20037;-75
2021/03/15 09:36:30;;;;;;;15.10;1.85;;;8.00;99.90;;;;;;5067070;28;20025;-74
2021/03/15 09:38:58;;;;;;;10.00;2.17;;;8.20;99.90;;;;;;5068810;28;20020;-73
2021/03/15 09:41:25;;;;;;;7.90;1.10;;;8.20;99.90;;;;;;5065227;28;20107;-73
2021/03/15 09:43:51;;;;;;;23.85;2.33;;;8.40;99.90;;;;;;5069016;28;20489;-73
2021/03/15 09:46:27;;;;;;;10.48;1.48;;;8.20;99.90;;;;;;5068421;28;20124;-73
2021/03/15 09:48:54;;;;;;;5.38;1.17;;;8.20;99.90;;;;;;5066518;28;20191;-74
2021/03/15 09:51:27;;;;;;;9.07;1.80;;;8.10;99.90;;;;;;5077096;28;21871;-72
2021/03/15 09:53:54;;;;;;;10.93;1.40;;;8.20;99.90;;;;;;5064265;28;20103;-74
2021/03/15 09:56:20;;;;;;;14.88;1.80;;;8.10;99.90;;;;;;5069710;28;20021;-76
2021/03/15 09:58:45;;;;;;;9.77;1.35;;;8.00;99.90;;;;;;5063494;28;20037;-73
2021/03/15 10:01:12;;;;;;;5.95;1.75;;;8.00;99.90;;;;;;5068776;28;20082;-74
2021/03/15 10:03:38;;;;;;;8.90;1.40;;;8.10;99.90;;;;;;5076140;28;20059;-75
2021/03/15 10:06:04;;;;;;;13.23;2.13;;;8.00;99.90;;;;;;5076494;28;20028;-74
2021/03/15 10:08:30;;;;;;;13.20;3.22;;;7.90;99.90;;;;;;5083435;28;20026;-74
2021/03/15 10:10:58;;;;;;;19.67;2.80;;;7.90;99.90;;;;;;5080179;28;20039;-74
2021/03/15 10:13:24;;;;;;;12.40;2.28;;;7.80;99.90;;;;;;5060962;28;20038;-73
2021/03/15 10:15:50;;;;;;;17.70;1.30;;;7.80;99.90;;;;;;5059642;28;20546;-76
2021/03/15 10:18:20;;;;;;;12.88;1.70;;;7.80;99.90;;;;;;5061532;28;20033;-74
2021/03/15 10:20:47;;;;;;;8.60;1.63;;;7.80;99.90;;;;;;5063115;28;20035;-75
2021/03/15 10:23:19;;;;;;;12.55;1.40;;;7.90;99.90;;;;;;5061850;28;20108;-74
2021/03/15 10:25:54;;;;;;;9.30;1.55;;;8.10;99.90;;;;;;5062494;28;20550;-74
2021/03/15 10:28:21;;;;;;;11.15;1.30;;;8.20;99.90;;;;;;5068518;28;20044;-72
2021/03/15 10:30:48;;;;;;;14.52;1.77;;;8.30;99.90;;;;;;5071254;28;20495;-73
2021/03/15 10:33:18;;;;;;;12.80;1.40;;;8.30;99.90;;;;;;5066035;28;20029;-73
2021/03/15 10:35:44;;;;;;;15.20;2.60;;;8.20;99.90;;;;;;5069882;28;20036;-73
2021/03/15 10:38:10;;;;;;;20.77;1.60;;;8.10;99.90;;;;;;5069932;28;20021;-76
2021/03/15 10:40:36;;;;;;;13.20;1.60;;;8.10;99.90;;;;;;5068580;28;20050;-75
2021/03/15 10:43:02;;;;;;;12.13;1.77;;;8.10;99.90;;;;;;5071358;28;20020;-73
2021/03/15 10:45:29;;;;;;;7.15;1.23;;;8.10;99.90;;;;;;5067739;28;20109;-74
2021/03/15 10:48:05;;;;;;;8.10;1.10;;;8.30;99.90;;;;;;5083331;28;20027;-75
2021/03/15 10:50:33;;;;;;;15.93;1.88;;;8.50;99.90;;;;;;5069543;28;20090;-75
2021/03/15 10:53:18;;;;;;;11.15;1.85;;;8.40;99.90;;;;;;5074508;28;20020;-74
2021/03/15 10:55:44;;;;;;;8.15;1.42;;;8.20;99.90;;;;;;5072473;28;20016;-75
2021/03/15 10:58:15;;;;;;;11.60;1.55;;;8.10;99.90;;;;;;5072821;28;20369;-74
2021/03/15 11:00:48;;;;;;;11.57;2.42;;;8.20;99.90;;;;;;5072578;28;21800;-74
2021/03/15 11:03:25;;;;;;;16.40;2.03;;;8.30;99.90;;;;;;5079907;28;20396;-75
2021/03/15 11:06:04;;;;;;;10.73;1.53;;;8.60;99.90;;;;;;5073146;28;20032;-76
2021/03/15 11:08:30;;;;;;;11.35;2.55;;;8.70;99.90;;;;;;5093946;28;20431;-75
2021/03/15 11:11:21;;;;;;;11.52;2.45;;;8.80;99.90;;;;;;5079102;28;20028;-73
2021/03/15 11:13:49;;;;;;;9.18;1.95;;;8.60;99.90;;;;;;5064766;28;20043;-74
2021/03/15 11:16:28;;;;;;;;;;;8.60;99.90;;;;;;5065498;28;20526;-75
2021/03/15 11:19:11;;;;;;;12.65;2.40;;;8.70;99.90;;;;;;5062865;28;20019;-73
2021/03/15 11:21:43;;;;;;;17.05;3.42;;;8.70;99.90;;;;;;5063702;28;20090;-74
2021/03/15 11:24:09;;;;;;;16.85;3.03;;;8.80;99.90;;;;;;5063297;28;20025;-71
2021/03/15 11:26:46;;;;;;;8.52;2.22;;;8.70;99.90;;;;;;5062934;28;20100;-73
2021/03/15 11:29:12;;;;;;;7.72;1.58;;;8.60;99.90;;;;;;5064250;28;20040;-73
2021/03/15 11:31:47;;;;;;;15.13;1.90;;;8.60;99.90;;;;;;5066567;28;20480;-74
2021/03/15 11:34:20;;;;;;;11.00;1.88;;;8.50;99.90;;;;;;5065175;28;20385;-73
2021/03/15 11:36:47;;;;;;;11.65;1.20;;;8.40;99.90;;;;;;5064612;28;20025;-74
2021/03/15 11:39:14;;;;;;;21.85;2.30;;;8.50;99.90;;;;;;5066198;28;20020;-77
2021/03/15 11:41:41;;;;;;;8.57;3.25;;;8.70;99.90;;;;;;5065817;28;20109;-78
2021/03/15 11:44:07;;;;;;;17.58;2.22;;;8.70;99.90;;;;;;5065859;28;20032;-74
2021/03/15 11:46:33;;;;;;;6.78;1.90;;;8.50;99.90;;;;;;5063302;28;20126;-78
2021/03/15 11:48:59;;;;;;;8.90;1.33;;;8.30;99.90;;;;;;5060938;28;20084;-76
2021/03/15 11:51:25;;;;;;;18.92;2.63;;;8.20;99.90;;;;;;5066332;28;20025;-79
2021/03/15 11:53:50;;;;;;;7.75;1.98;;;8.10;99.90;;;;;;5066789;28;20064;-75
2021/03/15 11:56:19;;;;;;;9.18;2.15;;;7.90;99.90;;;;;;5066256;28;20025;-78
2021/03/15 11:58:44;;;;;;;7.80;2.25;;;7.70;99.90;;;;;;5065622;28;20094;-80
2021/03/15 12:01:10;;;;;;;19.40;2.70;;;7.70;99.90;;;;;;5065533;28;21444;-80
2021/03/15 12:03:36;;;;;;;12.15;2.60;;;7.80;99.90;;;;;;5070751;28;20511;-75
2021/03/15 12:06:03;;;;;;;11.43;2.45;;;8.00;99.90;;;;;;5067011;28;20037;-74
2021/03/15 12:08:29;;;;;;;19.10;3.20;;;8.10;99.90;;;;;;5066650;28;20520;-80
2021/03/15 12:10:55;;;;;;;11.77;1.77;;;8.20;99.90;;;;;;5065722;28;20068;-76
2021/03/15 12:13:21;;;;;;;9.50;2.72;;;8.70;99.90;;;;;;5069161;28;20021;-75
2021/03/15 12:15:47;;;;;;;19.33;2.67;;;8.90;99.90;;;;;;5065763;28;20027;-74
2021/03/15 12:18:13;;;;;;;22.67;2.33;;;8.90;99.90;;;;;;5065407;28;20024;-75
2021/03/15 12:20:40;;;;;;;24.30;2.83;;;8.80;99.90;;;;;;5073420;28;20029;-76
2021/03/15 12:23:06;;;;;;;17.63;2.20;;;8.40;99.90;;;;;;5069897;28;20052;-75
2021/03/15 12:25:33;;;;;;;7.47;1.67;;;8.10;99.90;;;;;;5064544;28;20032;-75
2021/03/15 12:27:59;;;;;;;14.05;2.20;;;8.10;99.90;;;;;;5062605;28;20674;-75
2021/03/15 12:30:25;;;;;;;21.20;3.13;;;8.30;99.90;;;;;;5062969;28;20391;-75
2021/03/15 12:32:51;;;;;;;37.72;3.05;;;8.70;99.90;;;;;;5061880;28;20019;-76
2021/03/15 12:35:17;;;;;;;15.13;2.47;;;8.90;99.90;;;;;;5064100;28;20059;-76
2021/03/15 12:37:45;;;;;;;18.88;1.92;;;9.00;99.90;;;;;;5066600;28;20060;-76
2021/03/15 12:40:10;;;;;;;7.05;1.73;;;9.00;99.90;;;;;;5064823;28;20377;-75
2021/03/15 12:42:36;;;;;;;11.90;1.70;;;9.20;99.90;;;;;;5064765;28;20103;-76
2021/03/15 12:45:06;;;;;;;22.70;2.70;;;9.10;99.90;;;;;;5065418;28;20078;-73
2021/03/15 12:47:31;;;;;;;18.15;1.70;;;9.00;99.90;;;;;;5062140;28;20063;-75
2021/03/15 12:49:57;;;;;;;14.20;2.92;;;8.70;99.90;;;;;;5063462;28;20064;-75
2021/03/15 12:52:23;;;;;;;20.45;2.67;;;8.50;99.90;;;;;;5077488;28;20102;-75
2021/03/15 12:54:48;;;;;;;15.60;2.72;;;8.30;99.90;;;;;;5064815;28;20025;-72
2021/03/15 12:57:14;;;;;;;23.75;3.47;;;8.40;99.90;;;;;;5064779;28;20107;-76
2021/03/15 12:59:40;;;;;;;24.75;2.53;;;8.60;99.90;;;;;;5061994;28;20283;-75
2021/03/15 13:02:07;;;;;;;19.27;2.45;;;9.00;99.90;;;;;;5060335;28;20033;-76
2021/03/15 13:04:33;;;;;;;14.95;2.65;;;9.00;99.90;;;;;;5066734;28;20062;-76